Holcomb, Illinois
Current Conditions -  °F | °C
As of 10:42 PM on Saturday 22 Nov 2014 (Local Time) from KRFD Reporting Station
Overcast Overcast  
Wind Chill: 45°   Ceiling: 2400
Heat Index: 49°   Visibility: 10mi
Dew Point: 45°   Wind: 10mph
Humidity: 86%   Direction: 190°S
Pressure: 29.82"   Gusts: NA
Location:  42.06°N, 89.1°W
Report Text: KRFD 230442Z 19009KT 10SM BKN024 OVC039 09/07 A2982 RMK AO2 T00940072
Loading
Personal Weather Stations






























Interactive Weather Map New forecast layout! Learn more

10-Day Weather Forecast

Advertisements
Track Severe Weather on mobile